KJYR

York Municipal Airport

York, Nebraska, USA
METAR KJYR 201615Z AUTO 33014G19KT 5SM BR BKN008 17/16 A2994 RMK AO2
Observed Flight Rules
Aug-20 @ 16:15 UTC (10 minutes ago) Instrument Flight Rules
Wind Visibility Clouds Conditions
330° at 14 knots
 Gusting to 19 knots
5 miles
  • Broken at 800' AGL
  • Mist
Temperatures Readings
Current 17°C / 63°F
Dewpoint 16°C / 61°F
Humidity 94%
Altimeter 29.94" Hg
Pressure 1014 hPa
Elevation 509
METAR KJYR 201615Z AUTO 33014G19KT 5SM BR BKN008 17/16 A2994 RMK AO2
Observed Flight Rules
Aug-20 @ 16:15 UTC
(10 minutes ago)
IFR
Wind Visibility
330° at 14 knots
 Gusting to 19 knots
5 miles
Clouds
  • Broken at 800' AGL
Conditions
  • Mist
Temperature Dewpoint
17°C / 63°F 16°C / 61°F
Humidity Altimeter Pressure
94% 29.94" Hg 1014 hPa